x

Manistee Harbor, Mi (meem4) Weather Station

9:40am - Mon 26th Jan 2015 All times are CST. -6 hours from GMT.

  • Wind
  • Air Temp 16°f
  • Sea Pressure 1015.9mb
  • Manistee Harbor, Mi
  • Manistee Harbor, Mi

More Historic Weather Station data

Upgrade to MSW Pro to gain access to the past 30 days of data for over 8000 Wavebouys and Weather Stations around the globe.

Join Pro

Comparision Forecast

View Surf forecast
   
Mon 01/26 9:40am  -  2 mph 1015.9mb 16f
9:30am  -  2 mph 1015.6mb 16f
9:20am  -  1 mph 1015.2mb 14f
9:10am  -  mph 1014.9mb 15f
9:00am  -  1 mph 1015.2mb 15f
8:40am 3 8 mph 1015.2mb 11f
8:30am 7 11 mph 1015.2mb 10f
8:20am 7 10 mph 1015.2mb 9f
8:10am 9 13 mph 1015.2mb 8f
8:00am 8 11 mph 1015.6mb 7f
7:40am 7 9 mph 1016.3mb 6f
7:30am 6 9 mph 1016.3mb 6f
7:20am 5 8 mph 1016.6mb 6f
7:10am 2 5 mph 1016.6mb 6f
7:00am  -  5 mph 1016.6mb 6f
6:40am 2 8 mph 1016.3mb 6f
6:30am 6 9 mph 1016.3mb 6f
6:20am 7 8 mph 1016.3mb 7f
6:10am 5 7 mph 1015.9mb 7f
6:00am  -  6 mph 1015.9mb 7f
5:40am 7 9 mph 1015.6mb 7f
5:30am 6 10 mph 1015.6mb 8f
5:20am 6 11 mph 1015.6mb 8f
5:10am 6 10 mph 1015.9mb 8f
5:00am 9 11 mph 1015.9mb 9f
4:40am 8 11 mph 1016.3mb 8f
4:30am 9 13 mph 1016.6mb 8f
4:20am 8 13 mph 1016.6mb 8f
4:10am 8 11 mph 1016.6mb 8f
4:00am 8 11 mph 1016.9mb 8f
3:40am 8 13 mph 1016.9mb 8f
3:30am 8 11 mph 1016.9mb 8f
3:20am 9 13 mph 1016.9mb 8f
3:10am 9 13 mph 1016.9mb 8f
3:00am 8 11 mph 1016.9mb 8f
2:40am 9 11 mph 1016.9mb 9f
2:30am 8 11 mph 1016.9mb 9f
2:20am 9 13 mph 1016.9mb 9f
2:10am 9 13 mph 1017.3mb 9f
2:00am 9 13 mph 1017.3mb 9f
1:40am 8 13 mph 1017.3mb 9f
1:30am 10 14 mph 1017.3mb 10f
1:20am 9 14 mph 1017.6mb 9f
1:10am 9 13 mph 1017.3mb 10f
1:00am 8 14 mph 1017.3mb 9f
12:40am 8 11 mph 1016.9mb 10f
12:30am 7 10 mph 1017.3mb 10f
12:20am 8 11 mph 1017.3mb 10f
12:10am 8 11 mph 1017.3mb 10f
12:00am 7 13 mph 1017.3mb 10f
Sun 01/25 11:40pm 8 13 mph 1017.6mb 10f
11:30pm 9 14 mph 1017.3mb 10f
11:20pm 7 11 mph 1017.3mb 11f
11:10pm 7 11 mph 1017.6mb 11f
11:00pm 7 11 mph 1017.9mb 11f
10:40pm 9 13 mph 1018.3mb 12f
10:30pm 9 14 mph 1018.6mb 11f
10:20pm 10 14 mph 1018.6mb 11f
10:10pm 8 11 mph 1018.6mb 12f
10:00pm 8 11 mph 1019mb 12f
9:40pm 7 9 mph 1019mb 12f
9:30pm 6 8 mph 1019.3mb 12f
9:20pm 5 8 mph 1019.3mb 12f
9:10pm 6 8 mph 1019.6mb 13f
9:00pm 6 8 mph 1019.6mb 13f
8:40pm 6 10 mph 1019.3mb 13f
8:30pm 7 11 mph 1019.3mb 13f
8:20pm 7 10 mph 1019mb 13f
8:10pm 7 9 mph 1018.6mb 13f
8:00pm 8 9 mph 1018.3mb 14f
7:40pm 7 10 mph 1018.3mb 14f
7:30pm 7 9 mph 1018.6mb 14f
7:20pm 8 10 mph 1018.6mb 14f
7:10pm 8 10 mph 1018.6mb 15f
7:00pm 9 10 mph 1019mb 14f
6:40pm 6 10 mph 1018.6mb 15f
6:30pm 7 9 mph 1018.6mb 15f
6:20pm 7 9 mph 1018.6mb 15f
6:10pm 7 9 mph 1018.3mb 16f
6:00pm 7 10 mph 1017.9mb 16f
5:40pm 9 13 mph 1017.3mb 17f
5:30pm 9 13 mph 1017.3mb 17f
5:20pm 9 14 mph 1017.3mb 18f
5:10pm 8 14 mph 1017.6mb 18f
5:00pm 8 13 mph 1017.6mb 18f
4:40pm 11 14 mph 1017.9mb 19f
4:30pm 10 15 mph 1017.6mb 20f
4:20pm 13 15 mph 1017.3mb 20f
4:10pm 13 20 mph 1016.9mb 20f
4:00pm 11 17 mph 1016.3mb 20f
3:40pm 11 18 mph 1015.9mb 21f
3:30pm 11 17 mph 1016.3mb 22f
3:20pm 13 18 mph 1016.3mb 22f
3:10pm 10 20 mph 1016.6mb 22f
3:00pm 14 20 mph 1016.6mb 21f
2:40pm 11 20 mph 1016.9mb 21f
2:30pm 16 22 mph 1016.6mb 20f
2:20pm 15 22 mph 1015.9mb 20f
2:10pm 15 20 mph 1015.9mb 21f
2:00pm 15 21 mph 1015.6mb 21f
1:40pm 14 18 mph 1015.6mb 21f
1:30pm 14 17 mph 1015.6mb 22f
1:20pm 13 17 mph 1015.9mb 22f
1:10pm 9 18 mph 1015.9mb 23f
1:00pm 14 18 mph 1015.9mb 22f
12:40pm 14 21 mph 1016.3mb 22f
12:30pm 11 18 mph 1016.3mb 22f
12:20pm 11 20 mph 1016.3mb 21f
12:10pm 15 20 mph 1016.3mb 21f
12:00pm 10 18 mph 1016.3mb 22f
11:40am 13 20 mph 1016.3mb 21f
11:30am 13 18 mph 1016.3mb 21f
11:20am 13 17 mph 1016.3mb 21f
11:10am 11 17 mph 1015.9mb 21f
11:00am 10 14 mph 1015.9mb 20f
10:50am 8 16 mph 1015.9mb 20f
10:40am 9 15 mph 1015.9mb 19f
10:30am 11 17 mph 1015.9mb 18f
10:20am 11 16 mph 1015.9mb 17f
10:10am 10 17 mph 1016.3mb 18f
10:00am 10 18 mph 1016.3mb 17f
9:50am 8 21 mph 1016.3mb 17f
9:40am 15 21 mph 1015.9mb 16f
9:30am 9 14 mph 1015.9mb 17f
9:20am 11 17 mph 1015.9mb 16f
9:10am 11 17 mph 1015.9mb 15f
9:00am 15 20 mph 1015.2mb 15f
8:50am 14 23 mph 1014.9mb 14f
8:40am 11 17 mph 1014.6mb 14f
8:30am 9 13 mph 1014.2mb 14f
8:20am 10 17 mph 1014.2mb 14f
8:10am 11 20 mph 1014.2mb 14f
8:00am 14 20 mph 1014.2mb 14f
7:50am 15 20 mph 1014.2mb 14f
7:40am 10 16 mph 1014.2mb 15f
7:30am 8 13 mph 1014.2mb 15f
7:20am 11 16 mph 1014.2mb 15f
7:10am 10 20 mph 1014.2mb 15f
7:00am 17 23 mph 1013.9mb 15f
6:50am 13 18 mph 1013.9mb 15f
6:40am 15 22 mph 1013.9mb 16f
6:30am 16 21 mph 1013.5mb 16f
6:20am 10 16 mph 1013.2mb 17f
6:10am 10 15 mph 1012.5mb 17f
6:00am 9 13 mph 1012.2mb 17f
5:50am 9 14 mph 1012.2mb 18f
5:40am 11 16 mph 1012.2mb 18f
5:30am 11 17 mph 1012.2mb 18f
5:20am 14 22 mph 1012.2mb 18f
5:10am 15 21 mph 1012.2mb 19f
5:00am 16 20 mph 1012.2mb 18f
4:50am 15 23 mph 1012.2mb 18f
4:40am 15 20 mph 1012.2mb 19f
4:30am 16 22 mph 1011.9mb 19f
4:20am 9 18 mph 1011.9mb 19f
4:10am 15 17 mph 1011.2mb 19f
4:00am 15 23 mph 1011.2mb 19f
3:50am 16 21 mph 1010.8mb 20f
3:40am 15 21 mph 1010.5mb 20f
3:30am 14 22 mph 1010.8mb 20f
3:20am 14 18 mph 1010.8mb 21f
3:10am 11 17 mph 1010.8mb 21f
3:00am 16 22 mph 1010.8mb 21f
2:50am 20 23 mph 1010.5mb 21f
2:40am 17 21 mph 1010.5mb 21f
2:30am 17 23 mph 1010.2mb 22f
2:20am 18 25 mph 1009.5mb 22f
2:10am 16 18 mph 1009.5mb 22f
2:00am 14 18 mph 1009.5mb 22f
1:50am 16 20 mph 1009.1mb 23f
1:40am 10 15 mph 1009.5mb 23f
1:30am 13 18 mph 1009.5mb 24f
1:20am 14 20 mph 1009.5mb 24f
1:10am 15 18 mph 1009.1mb 24f
1:00am 13 18 mph 1009.1mb 24f
12:50am 13 16 mph 1008.8mb 24f
12:40am 11 18 mph 1008.5mb 24f
12:30am 10 16 mph 1008.1mb 24f
12:20am 10 15 mph 1007.8mb 24f
12:10am 13 16 mph 1007.8mb 24f
12:00am 11 17 mph 1007.8mb 24f
Sat 01/24 11:50pm 14 18 mph 1008.1mb 25f
11:40pm 14 18 mph 1008.5mb 25f
11:30pm 15 17 mph 1008.5mb 25f
11:20pm 15 18 mph 1008.5mb 25f
11:10pm 14 17 mph 1008.5mb 25f
11:00pm 15 18 mph 1008.1mb 26f
10:50pm 14 20 mph 1007.8mb 27f
10:40pm 14 17 mph 1007.8mb 27f
10:30pm 15 21 mph 1007.1mb 27f
10:20pm 14 17 mph 1006.8mb 28f
10:10pm 13 17 mph 1006.4mb 28f
10:00pm 14 18 mph 1006.4mb 28f
9:50pm 14 23 mph 1006.8mb 28f
9:40pm 14 21 mph 1006.4mb 28f
9:30pm 16 20 mph 1006.4mb 28f
9:20pm 13 18 mph 1006.8mb 29f
9:10pm 14 20 mph 1006.8mb 29f
9:00pm 13 18 mph 1006.4mb 29f
8:50pm 16 21 mph 1006.4mb 30f
8:40pm 18 21 mph 1006.4mb 30f
8:30pm 13 18 mph 1006.4mb 30f
8:20pm 14 18 mph 1006.1mb 31f
8:10pm 15 20 mph 1006.1mb 31f
8:00pm 16 21 mph 1005.8mb 31f
7:50pm 17 21 mph 1005.4mb 31f
7:40pm 17 21 mph 1005.1mb 31f
7:30pm 16 24 mph 1004.7mb 31f
7:20pm 21 25 mph 1004.4mb 31f
7:10pm 21 26 mph 1004.4mb 31f
7:00pm 23 29 mph 1004.4mb 31f
6:50pm 23 26 mph 1004.4mb 32f
6:40pm 16 22 mph 1004.4mb 33f
6:30pm 18 21 mph 1004.1mb 33f
6:20pm 17 21 mph 1004.1mb 33f
6:10pm 18 23 mph 1004.1mb 33f
6:00pm 20 23 mph 1003.7mb 33f
5:50pm 18 22 mph 1003.7mb 34f
5:40pm 16 23 mph 1003.7mb 34f
5:30pm 10 11 mph 1003.4mb 36f
5:20pm 9 10 mph 1003.4mb 36f
5:10pm 9 11 mph 1003mb 36f
5:00pm 9 10 mph 1003mb 36f
4:50pm 9 10 mph 1003mb 36f
4:40pm 9 10 mph 1003mb 36f
4:30pm 7 8 mph 1002.7mb 36f
4:20pm 7 9 mph 1002.7mb 36f
4:10pm 8 9 mph 1002.7mb 36f
4:00pm 7 8 mph 1002.4mb 36f
3:50pm 7 8 mph 1002.4mb 36f
3:40pm 7 8 mph 1002.4mb 36f
3:30pm 7 8 mph 1001.7mb 36f
3:20pm 6 7 mph 1001.7mb 36f
3:10pm 6 8 mph 1001.7mb 36f
3:00pm 7 8 mph 1001.4mb 36f
2:50pm 8 9 mph 1001.7mb 36f
2:40pm 8 10 mph 1001.4mb 36f
2:30pm 9 10 mph 1001.7mb 36f
2:20pm 9 11 mph 1001.4mb 36f
2:10pm 10 11 mph 1001.4mb 36f
2:00pm 10 13 mph 1001mb 36f
1:50pm 10 13 mph 1001.4mb 36f
1:40pm 11 14 mph 1001.4mb 36f
1:30pm 9 11 mph 1001.4mb 36f
1:20pm 10 13 mph 1001.4mb 36f
1:10pm 10 15 mph 1001.4mb 36f
1:00pm 13 16 mph 1001.4mb 36f
12:50pm 13 15 mph 1001.7mb 36f
12:40pm 13 17 mph 1001.4mb 36f
12:30pm 13 14 mph 1001.7mb 36f
12:20pm 13 14 mph 1001.7mb 36f
12:10pm 11 16 mph 1002mb 36f
12:00pm 13 16 mph 1002.4mb 36f
11:50am 11 14 mph 1002.4mb 36f
11:40am 10 14 mph 1002.4mb 36f
11:30am 11 15 mph 1002.7mb 36f
11:20am 14 15 mph 1002.7mb 36f
11:10am 11 14 mph 1002.7mb 36f
11:00am 13 15 mph 1002.7mb 36f
10:50am 13 16 mph 1002.7mb 36f
10:40am 13 15 mph 1003mb 36f
10:30am 13 14 mph 1003mb 36f
10:20am 11 14 mph 1003mb 36f
10:10am 11 13 mph 1003mb 36f
10:00am 11 14 mph 1003mb 36f
9:50am 13 14 mph 1003mb 36f
9:40am 11 14 mph 1003.4mb 36f
9:30am 11 14 mph 1003.4mb 36f
9:20am 10 14 mph 1003.4mb 36f
9:10am 11 15 mph 1003.4mb 36f
9:00am 11 16 mph 1003.4mb 36f
8:50am 13 17 mph 1003.4mb 36f
8:40am 11 16 mph 1003.4mb 36f
8:30am 11 18 mph 1003.4mb 35f
8:20am 11 16 mph 1003.4mb 35f
8:10am 14 17 mph 1003.4mb 36f
8:00am 11 16 mph 1003.4mb 35f
7:50am 14 17 mph 1003.4mb 36f
7:40am 13 16 mph 1003.4mb 36f
7:30am 11 14 mph 1003.4mb 35f
7:20am 11 13 mph 1003.4mb 35f
7:10am 9 11 mph 1003mb 35f
7:00am 9 11 mph 1003mb 35f
6:50am 10 11 mph 1003.4mb 35f
6:40am 10 14 mph 1003.4mb 35f
6:30am 11 14 mph 1003.4mb 35f
6:20am 11 13 mph 1003.4mb 35f
6:10am 10 14 mph 1003.4mb 35f
6:00am 10 13 mph 1003.4mb 35f
5:50am 10 11 mph 1003.4mb 35f
5:40am 9 13 mph 1003.7mb 35f
5:30am 10 13 mph 1004.1mb 35f
5:20am 9 11 mph 1004.1mb 35f
5:10am 7 10 mph 1004.1mb 35f
5:00am 9 13 mph 1004.1mb 35f
4:50am 10 13 mph 1004.1mb 35f
4:40am 9 10 mph 1004.4mb 35f
4:30am 10 13 mph 1004.4mb 35f
4:20am 9 10 mph 1004.4mb 35f
4:10am 9 10 mph 1004.4mb 35f
4:00am 9 10 mph 1004.4mb 35f
3:50am 7 11 mph 1004.4mb 34f
3:40am 8 10 mph 1004.7mb 34f
3:30am 7 9 mph 1004.7mb 34f
3:20am 7 9 mph 1004.7mb 33f
3:10am 9 13 mph 1004.4mb 33f
3:00am 10 14 mph 1004.4mb 33f
2:50am 13 14 mph 1004.4mb 33f
2:40am 10 13 mph 1004.7mb 33f
2:30am 11 14 mph 1004.7mb 33f
2:20am 13 15 mph 1005.1mb 34f
2:10am 13 16 mph 1005.1mb 34f
2:00am 13 15 mph 1005.4mb 34f
1:50am 10 15 mph 1005.4mb 34f
1:40am 10 14 mph 1005.8mb 34f
1:30am 11 15 mph 1005.8mb 34f
1:20am 14 16 mph 1006.1mb 34f
1:10am 14 15 mph 1006.1mb 34f
1:00am 14 15 mph 1006.1mb 34f
12:50am 13 17 mph 1006.1mb 34f
12:40am 16 18 mph 1006.4mb 34f
12:30am 15 20 mph 1006.4mb 34f
12:20am 14 17 mph 1006.4mb 34f
12:10am 16 18 mph 1006.4mb 34f
12:00am 15 17 mph 1006.4mb 34f
Fri 01/23 11:50pm 16 17 mph 1006.8mb 34f
11:40pm 15 17 mph 1006.8mb 34f
11:30pm 15 18 mph 1006.8mb 35f
11:20pm 16 20 mph 1006.8mb 35f
11:10pm 17 20 mph 1006.8mb 34f
11:00pm 17 22 mph 1007.1mb 34f
10:50pm 20 23 mph 1007.1mb 34f
10:40pm 20 23 mph 1007.1mb 34f
10:30pm 21 24 mph 1007.1mb 34f
10:20pm 20 25 mph 1007.5mb 34f
10:10pm 21 24 mph 1007.5mb 34f
10:00pm 20 24 mph 1007.8mb 34f
9:50pm 22 25 mph 1008.1mb 33f
9:40pm 22 26 mph 1008.5mb 33f
9:30pm 22 24 mph 1008.8mb 33f
9:20pm 22 25 mph 1008.8mb 33f
9:10pm 22 26 mph 1009.1mb 33f
9:00pm 22 24 mph 1009.5mb 32f
8:50pm 24 26 mph 1009.8mb 32f
8:40pm 22 26 mph 1009.8mb 32f
8:30pm 23 29 mph 1009.8mb 32f
8:20pm 25 28 mph 1009.8mb 32f
8:10pm 23 28 mph 1010.2mb 32f
8:00pm 23 30 mph 1010.2mb 32f
7:50pm 25 30 mph 1010.2mb 32f
7:40pm 26 30 mph 1010.2mb 32f
7:30pm 23 29 mph 1010.2mb 32f
7:20pm 25 30 mph 1010.2mb 32f
7:10pm 26 32 mph 1010.2mb 32f
7:00pm 25 30 mph 1009.8mb 32f
6:50pm 26 30 mph 1010.5mb 32f
6:40pm 23 28 mph 1010.8mb 32f
6:30pm 23 28 mph 1011.2mb 32f
6:20pm 21 26 mph 1011.2mb 32f
6:10pm 21 29 mph 1011.5mb 32f
6:00pm 22 29 mph 1011.2mb 32f
5:50pm 21 29 mph 1011.5mb 32f
5:40pm 22 25 mph 1011.5mb 32f
5:30pm 16 25 mph 1011.9mb 32f
5:20pm 23 28 mph 1011.9mb 32f
5:10pm 21 29 mph 1011.9mb 32f
5:00pm 23 29 mph 1011.5mb 32f
4:50pm 22 29 mph 1011.5mb 32f
4:40pm 21 28 mph 1011.5mb 32f
4:30pm 23 29 mph 1011.5mb 32f
4:20pm 21 28 mph 1011.5mb 32f
4:10pm 22 26 mph 1011.5mb 32f
4:00pm 21 26 mph 1011.5mb 31f
3:50pm 21 26 mph 1011.9mb 31f
3:40pm 24 30 mph 1012.2mb 32f
3:30pm 21 28 mph 1012.2mb 32f
3:20pm 24 28 mph 1012.5mb 32f
3:10pm 23 32 mph 1012.5mb 32f
3:00pm 21 31 mph 1012.5mb 32f
2:50pm 22 28 mph 1013.2mb 32f
2:40pm 26 32 mph 1013.2mb 31f
2:30pm 22 32 mph 1013.2mb 31f
2:20pm 24 30 mph 1013.2mb 31f
2:10pm 22 30 mph 1013.5mb 32f
2:00pm 25 31 mph 1013.2mb 31f
1:50pm 23 32 mph 1013.9mb 31f
1:40pm 24 36 mph 1013.5mb 31f
1:30pm 29 33 mph 1013.5mb 31f
1:20pm 26 34 mph 1013.9mb 31f
1:10pm 29 34 mph 1013.9mb 31f
1:00pm 29 37 mph 1014.2mb 31f
12:50pm 30 36 mph 1014.6mb 31f
12:40pm 28 36 mph 1014.6mb 31f
12:30pm 25 37 mph 1014.9mb 31f
12:20pm 31 37 mph 1014.9mb 31f
12:10pm 30 34 mph 1015.2mb 31f
12:00pm 29 36 mph 1015.2mb 31f
11:50am 30 34 mph 1015.6mb 31f
11:40am 26 36 mph 1015.6mb 31f
11:30am 30 36 mph 1015.9mb 31f
11:20am 28 36 mph 1015.9mb 32f
11:10am 30 37 mph 1016.3mb 31f
11:00am 30 36 mph 1016.3mb 31f
10:50am 28 37 mph 1016.6mb 31f
10:40am 29 34 mph 1016.9mb 31f
10:30am 29 34 mph 1017.6mb 31f
10:20am 26 31 mph 1017.6mb 31f
10:10am 28 37 mph 1017.9mb 31f
10:00am 29 37 mph 1017.9mb 31f
9:50am 28 34 mph 1018.3mb 31f
9:40am 31 36 mph 1017.9mb 31f
9:30am 32 37 mph 1017.9mb 31f
9:20am 32 39 mph 1018.3mb 31f
9:10am 31 36 mph 1017.9mb 31f
9:00am 33 38 mph 1017.9mb 31f
8:50am 32 37 mph 1017.9mb 31f
8:40am 32 38 mph 1017.9mb 31f
8:30am 29 37 mph 1017.9mb 31f
8:20am 31 37 mph 1017.9mb 31f
8:10am 31 37 mph 1018.3mb 31f
8:00am 28 36 mph 1018.3mb 31f
7:50am 30 34 mph 1018.6mb 31f
7:40am 28 34 mph 1019.3mb 31f
7:30am 29 36 mph 1019.3mb 31f
7:20am 30 36 mph 1019.6mb 31f
7:10am 28 34 mph 1019.6mb 31f
7:00am 30 34 mph 1020mb 31f
6:50am 30 33 mph 1020.3mb 31f
6:40am 31 34 mph 1020.3mb 31f
6:30am 29 36 mph 1020.3mb 31f
6:20am 30 36 mph 1020mb 31f
6:10am 29 34 mph 1020mb 31f
6:00am 29 34 mph 1020mb 31f
5:50am 30 34 mph 1020mb 31f
5:40am 28 33 mph 1020mb 31f
5:30am 28 32 mph 1020mb 31f
5:20am 28 32 mph 1020.3mb 31f
5:10am 29 31 mph 1020.3mb 31f
5:00am 26 31 mph 1021mb 31f
4:50am 29 32 mph 1021mb 31f
4:40am 28 32 mph 1021.3mb 31f
4:30am 25 32 mph 1021.7mb 31f
4:20am 26 32 mph 1022mb 31f
4:10am 25 32 mph 1022mb 31f
4:00am 26 33 mph 1022mb 31f
3:50am 28 33 mph 1021.7mb 31f
3:40am 28 33 mph 1022mb 31f
3:30am 28 33 mph 1021.7mb 31f
3:20am 26 34 mph 1021.7mb 31f
3:10am 28 36 mph 1021.7mb 31f
3:00am 30 34 mph 1021.7mb 31f
2:50am 30 36 mph 1022mb 31f
2:40am 29 36 mph 1022.4mb 31f
2:30am 29 37 mph 1022.4mb 31f
2:20am 29 36 mph 1023mb 31f
2:10am 29 34 mph 1023mb 31f
2:00am 29 37 mph 1023.4mb 31f
1:50am 28 37 mph 1023.4mb 31f
1:40am 31 37 mph 1023.4mb 31f
1:30am 30 34 mph 1023.4mb 31f
1:20am 29 34 mph 1023.4mb 31f
1:10am 31 38 mph 1023.4mb 31f
1:00am 31 37 mph 1023.7mb 31f
12:50am 24 32 mph 1023.4mb 31f
12:40am 26 31 mph 1023.4mb 31f
12:30am 29 33 mph 1023.4mb 31f
12:20am 23 31 mph 1023.7mb 31f
12:10am 28 33 mph 1023.7mb 31f
12:00am 28 32 mph 1024.4mb 32f
Thu 01/22 11:50pm 29 33 mph 1024.4mb 32f
11:40pm 28 34 mph 1024.7mb 32f
11:30pm 25 32 mph 1025.1mb 32f
11:20pm 28 33 mph 1025.1mb 32f
11:10pm 28 31 mph 1025.4mb 32f
11:00pm 29 32 mph 1025.4mb 32f
10:50pm 28 32 mph 1025.4mb 33f
10:40pm 25 29 mph 1025.7mb 33f
10:30pm 18 28 mph 1025.4mb 32f
10:20pm 20 30 mph 1025.4mb 33f
10:10pm 25 30 mph 1025.4mb 33f
10:00pm 22 26 mph 1025.4mb 32f
9:50pm 17 24 mph 1025.4mb 32f
9:40pm 18 22 mph 1025.4mb 32f
9:30pm 17 26 mph 1025.7mb 32f
9:20pm 23 28 mph 1026.1mb 32f
9:10pm 15 17 mph 1026.4mb 31f
9:00pm 11 16 mph 1026.8mb 30f
8:50pm 13 18 mph 1027.1mb 30f
8:40pm 13 15 mph 1027.1mb 30f
8:30pm 13 16 mph 1027.1mb 29f
8:20pm 13 16 mph 1027.1mb 29f
8:10pm 10 14 mph 1027.1mb 29f
8:00pm 11 14 mph 1027.1mb 29f
7:50pm 10 14 mph 1026.8mb 29f
7:40pm 11 14 mph 1026.8mb 28f
7:30pm 10 14 mph 1026.8mb 28f
7:20pm 11 15 mph 1026.8mb 28f
7:10pm 11 15 mph 1027.1mb 28f
7:00pm 11 13 mph 1027.4mb 28f
6:50pm 9 11 mph 1027.8mb 28f
6:40pm 8 11 mph 1027.8mb 28f
6:30pm 9 17 mph 1028.1mb 29f
6:20pm 15 18 mph 1028.1mb 30f
6:10pm 14 17 mph 1028.4mb 30f
6:00pm 13 16 mph 1028.4mb 30f
5:50pm 14 16 mph 1028.4mb 30f
5:40pm 13 17 mph 1028.1mb 30f
5:30pm 13 17 mph 1028.1mb 30f
5:20pm 16 17 mph 1028.1mb 30f
5:10pm 15 18 mph 1028.1mb 30f